Time;durP1;ratioP1;P1;durP2;ratioP2;P2;SDS_P1;SDS_P2;PMS_P1;PMS_P2;Temp;Humidity;BMP_temperature;BMP_pressure;BME280_temperature;BME280_humidity;BME280_pressure;Samples;Min_cycle;Max_cycle;Signal;HPM_P1;HPM_P2
2022/09/14 00:01:07;;;;;;;27.90;17.92;;;;;;;18.32;100.00;98721.91;5070233;28;21040;-66
2022/09/14 00:03:33;;;;;;;20.35;16.45;;;;;;;18.31;100.00;98717.53;5070221;28;20055;-68
2022/09/14 00:06:05;;;;;;;18.77;13.98;;;;;;;18.31;100.00;98714.88;5069318;28;20056;-68
2022/09/14 00:08:32;;;;;;;29.05;18.92;;;;;;;18.29;100.00;98708.88;5070104;28;20052;-67
2022/09/14 00:10:58;;;;;;;25.55;15.90;;;;;;;18.31;100.00;98704.22;5069800;28;20053;-66
2022/09/14 00:13:25;;;;;;;15.75;12.60;;;;;;;18.27;100.00;98698.34;5070114;28;20055;-67
2022/09/14 00:15:51;;;;;;;19.95;14.98;;;;;;;18.31;100.00;98699.72;5069370;28;20063;-67
2022/09/14 00:18:18;;;;;;;15.73;13.88;;;;;;;18.34;100.00;98694.09;5069901;28;20132;-67
2022/09/14 00:20:45;;;;;;;27.80;19.63;;;;;;;18.27;100.00;98686.84;5069560;28;20041;-68
2022/09/14 00:23:12;;;;;;;25.42;19.92;;;;;;;18.26;100.00;98683.31;5069634;28;20660;-68
2022/09/14 00:25:39;;;;;;;31.42;22.30;;;;;;;18.17;100.00;98679.75;5069844;28;20052;-68
2022/09/14 00:28:06;;;;;;;24.52;18.85;;;;;;;18.15;100.00;98679.03;5069345;28;20419;-69
2022/09/14 00:30:32;;;;;;;30.70;21.08;;;;;;;18.11;100.00;98675.00;5068606;28;20048;-66
2022/09/14 00:32:59;;;;;;;24.52;19.30;;;;;;;18.03;100.00;98669.59;5051752;28;20056;-66
2022/09/14 00:35:25;;;;;;;29.95;21.52;;;;;;;18.01;100.00;98668.88;5067691;28;20052;-66
2022/09/14 00:37:52;;;;;;;18.83;15.82;;;;;;;18.01;100.00;98668.88;5069105;28;20060;-67
2022/09/14 00:40:20;;;;;;;26.13;18.50;;;;;;;18.01;100.00;98672.38;5069457;28;20040;-67
2022/09/14 00:42:46;;;;;;;36.67;24.90;;;;;;;18.07;100.00;98670.97;5070220;28;20048;-67
2022/09/14 00:45:17;;;;;;;20.40;16.55;;;;;;;18.07;100.00;98672.81;5069634;28;20056;-67
2022/09/14 00:47:47;;;;;;;24.48;18.65;;;;;;;18.05;100.00;98667.59;5069071;28;20063;-69
2022/09/14 00:50:14;;;;;;;30.17;22.92;;;;;;;18.03;100.00;98665.09;5069233;28;20048;-68
2022/09/14 00:52:43;;;;;;;30.83;22.40;;;;;;;18.00;100.00;98656.56;5069844;28;20048;-67
2022/09/14 00:55:13;;;;;;;26.45;20.13;;;;;;;18.01;100.00;98652.88;5069685;28;20049;-68
2022/09/14 00:57:44;;;;;;;36.60;27.80;;;;;;;18.00;100.00;98653.88;5069147;28;20078;-68
2022/09/14 01:00:14;;;;;;;21.95;17.42;;;;;;;18.01;100.00;98648.38;5069831;28;20064;-68
2022/09/14 01:02:41;;;;;;;21.77;18.30;;;;;;;18.00;100.00;98645.88;5069922;28;20048;-68
2022/09/14 01:05:10;;;;;;;21.20;18.00;;;;;;;18.01;100.00;98647.56;5069585;28;20075;-68
2022/09/14 01:07:52;;;;;;;18.45;15.57;;;;;;;18.03;100.00;98646.41;5069282;28;20606;-68
2022/09/14 01:10:29;;;;;;;24.42;17.40;;;;;;;18.04;100.00;98644.59;5070148;28;20048;-66
2022/09/14 01:13:13;;;;;;;22.17;16.85;;;;;;;18.04;100.00;98641.94;5071012;28;20048;-68
2022/09/14 01:15:50;;;;;;;26.42;17.67;;;;;;;17.98;100.00;98647.88;5073818;28;20063;-66
2022/09/14 01:18:22;;;;;;;18.95;15.77;;;;;;;18.01;100.00;98644.88;5070237;28;20534;-67
2022/09/14 01:20:56;;;;;;;19.00;16.20;;;;;;;18.05;100.00;98648.94;5070427;28;20444;-67
2022/09/14 01:23:29;;;;;;;19.20;15.15;;;;;;;18.09;100.00;98649.47;5070212;28;20048;-66
2022/09/14 01:26:24;;;;;;;20.52;17.73;;;;;;;18.12;100.00;98655.34;5069243;28;20044;-66
2022/09/14 01:28:57;;;;;;;18.52;15.48;;;;;;;18.14;100.00;98666.72;5071961;28;20048;-66
2022/09/14 01:31:30;;;;;;;21.98;15.95;;;;;;;18.16;100.00;98662.06;5072907;28;20037;-66
2022/09/14 01:34:05;;;;;;;18.70;15.93;;;;;;;18.16;100.00;98666.53;5073354;28;20053;-67
2022/09/14 01:36:34;;;;;;;19.38;15.48;;;;;;;18.17;100.00;98655.72;5072993;28;20044;-68
2022/09/14 01:39:01;;;;;;;22.45;17.63;;;;;;;18.20;100.00;98655.41;5073712;28;20090;-68
2022/09/14 01:41:31;;;;;;;24.33;17.27;;;;;;;18.22;100.00;98648.09;5073090;28;20048;-67
2022/09/14 01:44:05;;;;;;;29.95;21.15;;;;;;;18.23;100.00;98644.44;5073100;28;20052;-68
2022/09/14 01:46:38;;;;;;;21.10;17.60;;;;;;;18.20;100.00;98638.59;5072677;28;20451;-69
2022/09/14 01:49:11;;;;;;;27.10;22.00;;;;;;;18.11;100.00;98632.31;5072833;28;20135;-68
2022/09/14 01:51:44;;;;;;;24.30;20.30;;;;;;;18.13;100.00;98635.69;5069733;28;20047;-66
2022/09/14 01:54:16;;;;;;;21.30;18.67;;;;;;;18.11;100.00;98632.31;5072751;28;20053;-66
2022/09/14 01:56:49;;;;;;;25.75;20.60;;;;;;;18.07;100.00;98622.97;5072337;28;20060;-68
2022/09/14 01:59:21;;;;;;;21.58;18.90;;;;;;;17.96;100.00;98617.84;5072520;28;20838;-68
2022/09/14 02:01:52;;;;;;;21.83;17.38;;;;;;;17.94;100.00;98617.16;5072987;28;20074;-68
2022/09/14 02:04:26;;;;;;;22.73;18.45;;;;;;;17.98;100.00;98618.53;5072433;28;20053;-66
2022/09/14 02:06:52;;;;;;;23.30;18.13;;;;;;;18.02;100.00;98614.59;5072054;28;20052;-67
2022/09/14 02:09:25;;;;;;;25.33;18.48;;;;;;;18.01;100.00;98605.72;5072385;28;20055;-67
2022/09/14 02:11:52;;;;;;;25.63;19.92;;;;;;;18.01;100.00;98607.56;5072460;28;20052;-67
2022/09/14 02:14:20;;;;;;;21.90;15.30;;;;;;;18.05;100.00;98605.44;5072210;28;20427;-67
2022/09/14 02:16:46;;;;;;;41.30;24.58;;;;;;;18.09;100.00;98604.97;5071419;28;20049;-66
2022/09/14 02:19:14;;;;;;;18.08;14.00;;;;;;;18.09;100.00;98601.44;5072147;28;20045;-66
2022/09/14 02:21:41;;;;;;;21.23;16.65;;;;;;;18.05;100.00;98595.59;5072447;28;20056;-67
2022/09/14 02:24:09;;;;;;;25.52;18.15;;;;;;;18.07;100.00;98598.13;5071959;28;20500;-67
2022/09/14 02:26:36;;;;;;;15.45;13.77;;;;;;;18.13;100.00;98595.66;5071260;28;20044;-68
2022/09/14 02:29:03;;;;;;;19.90;13.80;;;;;;;18.15;100.00;98598.19;5072026;28;20075;-68
2022/09/14 02:31:39;;;;;;;35.25;21.15;;;;;;;18.19;100.00;98599.56;5067000;28;20052;-68
2022/09/14 02:34:13;;;;;;;25.33;19.38;;;;;;;18.18;100.00;98600.53;5051877;28;20049;-67
2022/09/14 02:36:48;;;;;;;37.55;22.33;;;;;;;18.19;100.00;98600.41;5051180;28;20053;-67
2022/09/14 02:39:25;;;;;;;36.25;24.98;;;;;;;18.14;100.00;98584.03;5051635;28;20550;-66
2022/09/14 02:41:58;;;;;;;23.00;18.13;;;;;;;18.12;100.00;98579.84;5051785;28;20056;-67
2022/09/14 02:44:34;;;;;;;28.38;20.77;;;;;;;18.11;100.00;98576.31;5051948;28;20045;-67
2022/09/14 02:47:07;;;;;;;23.80;19.67;;;;;;;18.09;100.00;98582.78;5052724;28;20045;-67
2022/09/14 02:49:43;;;;;;;17.35;13.35;;;;;;;18.06;100.00;98581.25;5053037;28;20055;-67
2022/09/14 02:52:15;;;;;;;25.23;17.48;;;;;;;18.10;100.00;98581.81;5053738;28;20045;-67
2022/09/14 02:54:50;;;;;;;32.47;21.27;;;;;;;18.16;100.00;98573.19;5054388;28;20049;-67
2022/09/14 02:57:16;;;;;;;23.15;17.77;;;;;;;18.14;100.00;98568.00;5052517;28;20049;-67
2022/09/14 02:59:43;;;;;;;23.00;17.13;;;;;;;18.13;100.00;98577.00;5067575;28;20056;-68
2022/09/14 03:02:11;;;;;;;41.20;23.35;;;;;;;18.17;100.00;98566.88;5072455;28;20470;-68
2022/09/14 03:04:37;;;;;;;34.58;23.27;;;;;;;18.11;100.00;98570.97;5071808;28;20056;-65
2022/09/14 03:07:04;;;;;;;38.67;25.92;;;;;;;18.13;100.00;98565.50;5071510;28;20048;-66
2022/09/14 03:09:31;;;;;;;19.92;15.25;;;;;;;18.07;100.00;98577.63;5072976;28;20059;-66
2022/09/14 03:11:57;;;;;;;19.38;15.02;;;;;;;18.06;100.00;98567.09;5071789;28;20048;-67
2022/09/14 03:14:24;;;;;;;21.15;16.73;;;;;;;18.06;100.00;98565.25;5072286;28;20058;-67
2022/09/14 03:16:50;;;;;;;30.40;20.45;;;;;;;18.07;100.00;98566.13;5070377;28;20045;-66
2022/09/14 03:19:18;;;;;;;21.95;17.42;;;;;;;18.10;100.00;98555.97;5071936;28;20051;-67
2022/09/14 03:21:45;;;;;;;39.17;25.05;;;;;;;18.11;100.00;98560.31;5071571;28;20045;-66
2022/09/14 03:24:12;;;;;;;26.58;21.67;;;;;;;18.08;100.00;98552.59;5072039;28;20051;-67
2022/09/14 03:26:38;;;;;;;25.73;19.40;;;;;;;18.06;100.00;98559.94;5071828;28;20083;-67
2022/09/14 03:29:06;;;;;;;24.88;20.40;;;;;;;18.01;100.00;98554.22;5051510;28;20056;-66
2022/09/14 03:31:34;;;;;;;30.38;21.65;;;;;;;18.00;100.00;98555.22;5052766;28;20056;-66
2022/09/14 03:34:01;;;;;;;31.08;21.15;;;;;;;18.02;100.00;98550.56;5054311;28;20052;-66
2022/09/14 03:36:30;;;;;;;27.58;21.40;;;;;;;18.00;100.00;98548.03;5052093;28;20061;-66
2022/09/14 03:38:58;;;;;;;29.63;21.75;;;;;;;17.98;100.00;98542.03;5052490;28;20056;-66
2022/09/14 03:41:25;;;;;;;26.25;20.95;;;;;;;18.00;100.00;98539.22;5051376;28;20461;-67
2022/09/14 03:43:52;;;;;;;27.27;21.85;;;;;;;18.02;100.00;98547.91;5051536;28;20049;-67
2022/09/14 03:46:21;;;;;;;31.88;21.83;;;;;;;18.02;100.00;98542.56;5050522;28;20052;-69
2022/09/14 03:48:48;;;;;;;40.20;27.23;;;;;;;18.06;100.00;98541.25;5057296;28;20052;-67
2022/09/14 03:51:15;;;;;;;30.30;22.63;;;;;;;18.06;100.00;98535.91;5070975;28;20045;-66
2022/09/14 03:53:44;;;;;;;33.33;23.58;;;;;;;18.11;100.00;98544.28;5070433;28;20056;-67
2022/09/14 03:56:14;;;;;;;60.28;33.50;;;;;;;18.10;100.00;98533.81;5069702;28;20462;-67
2022/09/14 03:58:40;;;;;;;40.50;28.25;;;;;;;18.06;100.00;98538.59;5066974;28;20044;-66
2022/09/14 04:01:09;;;;;;;39.83;27.48;;;;;;;18.02;100.00;98542.56;5070297;28;20040;-67
2022/09/14 04:03:36;;;;;;;40.45;27.75;;;;;;;17.98;100.00;98531.34;5070221;28;20424;-68
2022/09/14 04:06:04;;;;;;;34.83;24.25;;;;;;;17.99;100.00;98540.19;5069362;28;20052;-66
2022/09/14 04:08:31;;;;;;;35.30;23.67;;;;;;;17.98;100.00;98534.03;5069869;28;20074;-66
2022/09/14 04:10:59;;;;;;;38.40;27.90;;;;;;;17.98;100.00;98527.84;5069569;28;20392;-66
2022/09/14 04:13:26;;;;;;;32.20;23.65;;;;;;;17.93;100.00;98533.66;5070252;28;20435;-67
2022/09/14 04:15:56;;;;;;;46.92;27.35;;;;;;;17.82;100.00;98536.56;5069421;28;20060;-68
2022/09/14 04:18:24;;;;;;;25.80;18.67;;;;;;;17.77;100.00;98533.47;5069699;28;20052;-67
2022/09/14 04:20:55;;;;;;;40.70;27.52;;;;;;;17.67;100.00;98536.22;5069593;28;20135;-67
2022/09/14 04:23:21;;;;;;;38.63;27.48;;;;;;;17.50;100.00;98545.00;5069759;28;20048;-68
2022/09/14 04:25:48;;;;;;;38.92;24.98;;;;;;;17.36;100.00;98539.22;5069376;28;20420;-67
2022/09/14 04:28:16;;;;;;;42.47;22.13;;;;;;;17.33;100.00;98538.69;5069690;28;20044;-68
2022/09/14 04:30:42;;;;;;;42.20;25.05;;;;;;;17.29;100.00;98535.47;5069850;28;20048;-68
2022/09/14 04:33:09;;;;;;;34.55;23.60;;;;;;;17.25;100.00;98538.56;5069503;28;20040;-67
2022/09/14 04:35:36;;;;;;;42.85;24.75;;;;;;;17.17;100.00;98537.50;5069598;28;20044;-67
2022/09/14 04:38:03;;;;;;;39.08;22.45;;;;;;;17.04;100.00;98545.00;5068854;28;20754;-67
2022/09/14 04:40:30;;;;;;;46.25;26.58;;;;;;;16.98;100.00;98542.06;5061022;28;20102;-66
2022/09/14 04:42:56;;;;;;;30.52;20.27;;;;;;;16.94;100.00;98542.38;5049487;28;20053;-68
2022/09/14 04:45:25;;;;;;;30.05;21.08;;;;;;;16.88;100.00;98540.31;5049377;28;20662;-66
2022/09/14 04:47:53;;;;;;;25.20;19.33;;;;;;;16.84;100.00;98538.91;5048861;28;20047;-68
2022/09/14 04:50:19;;;;;;;38.78;23.02;;;;;;;16.81;100.00;98535.69;5049377;28;20163;-66
2022/09/14 04:52:46;;;;;;;26.90;20.33;;;;;;;16.73;100.00;98533.72;5049285;28;20053;-67
2022/09/14 04:55:12;;;;;;;30.42;19.77;;;;;;;16.63;100.00;98532.94;5049765;28;20452;-66
2022/09/14 04:57:39;;;;;;;27.73;20.13;;;;;;;16.61;100.00;98537.53;5049510;28;20071;-68
2022/09/14 05:00:07;;;;;;;29.65;19.92;;;;;;;16.56;100.00;98537.13;5067282;28;20062;-68
2022/09/14 05:02:34;;;;;;;29.98;17.85;;;;;;;16.62;100.00;98536.59;5069133;28;20072;-68
2022/09/14 05:05:01;;;;;;;19.92;15.05;;;;;;;16.67;100.00;98536.97;5069167;28;20053;-68
2022/09/14 05:07:27;;;;;;;31.08;19.40;;;;;;;16.58;100.00;98532.53;5068562;28;20055;-67
2022/09/14 05:09:54;;;;;;;30.05;19.17;;;;;;;16.52;100.00;98537.44;5069197;28;20053;-67
2022/09/14 05:12:20;;;;;;;27.88;19.38;;;;;;;16.46;100.00;98545.16;5068844;28;20667;-68
2022/09/14 05:14:47;;;;;;;20.63;15.75;;;;;;;16.41;100.00;98536.75;5068887;28;20049;-68
2022/09/14 05:17:13;;;;;;;23.92;17.25;;;;;;;16.41;100.00;98545.56;5068110;28;20040;-67
2022/09/14 05:19:41;;;;;;;28.00;18.67;;;;;;;16.42;100.00;98541.94;5069060;28;20499;-67
2022/09/14 05:22:08;;;;;;;25.92;18.55;;;;;;;16.41;100.00;98536.75;5069273;28;20040;-67
2022/09/14 05:24:34;;;;;;;26.05;19.15;;;;;;;16.42;100.00;98546.44;5069110;28;20060;-67
2022/09/14 05:27:01;;;;;;;21.52;16.65;;;;;;;16.38;100.00;98540.53;5068649;28;20048;-69
2022/09/14 05:29:30;;;;;;;26.25;16.85;;;;;;;16.36;100.00;98531.88;5068888;28;20859;-67
2022/09/14 05:31:57;;;;;;;25.70;18.67;;;;;;;16.36;100.00;98529.19;5068936;28;20110;-69
2022/09/14 05:34:23;;;;;;;22.23;15.85;;;;;;;16.37;100.00;98527.41;5068890;28;20048;-68
2022/09/14 05:36:51;;;;;;;28.35;18.27;;;;;;;16.37;100.00;98527.41;5068450;28;20060;-66
2022/09/14 05:39:18;;;;;;;37.45;25.83;;;;;;;16.39;100.00;98526.28;5069000;28;20068;-67
2022/09/14 05:41:44;;;;;;;24.48;17.83;;;;;;;16.40;100.00;98529.78;5068511;28;20055;-68
2022/09/14 05:44:11;;;;;;;23.98;18.55;;;;;;;16.42;100.00;98526.00;5068733;28;20056;-66
2022/09/14 05:46:37;;;;;;;25.70;20.70;;;;;;;16.41;100.00;98526.94;5068361;28;20076;-68
2022/09/14 05:49:04;;;;;;;18.38;12.90;;;;;;;16.38;100.00;98523.75;5068702;28;20049;-69
2022/09/14 05:51:30;;;;;;;18.75;14.73;;;;;;;16.39;100.00;98526.28;5068765;28;20416;-67
2022/09/14 05:53:59;;;;;;;21.27;15.50;;;;;;;16.48;100.00;98525.41;5068965;28;20052;-69
2022/09/14 05:56:28;;;;;;;17.73;13.05;;;;;;;16.45;100.00;98527.53;5068050;28;20143;-69
2022/09/14 05:58:54;;;;;;;14.75;12.80;;;;;;;16.46;100.00;98530.03;5068630;28;20059;-69
2022/09/14 06:01:22;;;;;;;13.27;11.30;;;;;;;16.47;100.00;98529.06;5068850;28;20055;-69
2022/09/14 06:03:50;;;;;;;14.93;12.27;;;;;;;16.49;100.00;98531.56;5065242;28;20076;-68
2022/09/14 06:06:18;;;;;;;16.58;12.27;;;;;;;16.46;100.00;98535.34;5068029;28;20057;-68
2022/09/14 06:08:45;;;;;;;14.77;13.00;;;;;;;16.48;100.00;98536.03;5068562;28;20052;-67
2022/09/14 06:11:15;;;;;;;11.75;10.43;;;;;;;16.44;100.00;98534.66;5068252;28;20046;-67
2022/09/14 06:13:42;;;;;;;18.45;14.05;;;;;;;16.48;100.00;98536.03;5068840;28;20048;-67
2022/09/14 06:16:11;;;;;;;15.20;11.95;;;;;;;16.47;100.00;98528.22;5071328;28;20065;-67
2022/09/14 06:18:39;;;;;;;11.95;9.95;;;;;;;16.38;100.00;98529.91;5072000;28;20052;-68
2022/09/14 06:21:07;;;;;;;14.25;12.65;;;;;;;16.25;100.00;98524.06;5072099;28;20050;-67
2022/09/14 06:23:34;;;;;;;13.20;11.48;;;;;;;16.17;100.00;98526.56;5072086;28;20041;-67
2022/09/14 06:26:02;;;;;;;15.52;12.25;;;;;;;16.12;100.00;98526.16;5071210;28;20052;-67
2022/09/14 06:28:32;;;;;;;13.57;12.10;;;;;;;16.15;100.00;98529.41;5071946;28;20051;-67
2022/09/14 06:30:58;;;;;;;11.27;9.00;;;;;;;16.15;100.00;98517.94;5072021;28;20044;-67
2022/09/14 06:33:25;;;;;;;11.70;10.50;;;;;;;16.18;100.00;98517.63;5071721;28;20044;-68
2022/09/14 06:35:56;;;;;;;14.38;11.93;;;;;;;16.18;100.00;98513.16;5071172;28;20052;-69
2022/09/14 06:38:22;;;;;;;12.68;10.23;;;;;;;16.18;100.00;98507.00;5071607;28;20052;-69
2022/09/14 06:40:55;;;;;;;14.70;12.75;;;;;;;16.15;100.00;98501.97;5071479;28;20052;-68
2022/09/14 06:43:22;;;;;;;18.25;12.63;;;;;;;16.21;100.00;98501.38;5069462;28;20486;-67
2022/09/14 06:46:01;;;;;;;11.02;9.45;;;;;;;16.26;100.00;98502.63;5071134;28;20045;-66
2022/09/14 06:48:28;;;;;;;12.95;10.18;;;;;;;16.24;100.00;98498.44;5068979;28;20068;-70
2022/09/14 06:50:55;;;;;;;9.93;8.43;;;;;;;16.28;100.00;98503.31;5051326;28;20101;-69
2022/09/14 06:53:22;;;;;;;27.20;22.55;;;;;;;16.34;100.00;98501.06;5051601;28;20045;-68
2022/09/14 06:55:49;;;;;;;12.45;9.95;;;;;;;16.30;100.00;98504.03;5050916;28;20060;-68
2022/09/14 06:58:16;;;;;;;15.88;12.20;;;;;;;16.28;100.00;98505.16;5053923;28;20049;-68
2022/09/14 07:00:42;;;;;;;10.50;7.50;;;;;;;16.22;100.00;98498.59;5071454;28;20590;-67
2022/09/14 07:03:10;;;;;;;10.75;9.15;;;;;;;16.22;100.00;98497.72;5071272;28;20056;-70
2022/09/14 07:05:36;;;;;;;8.02;6.90;;;;;;;16.22;100.00;98500.41;5071230;28;20044;-67
2022/09/14 07:08:03;;;;;;;6.97;5.75;;;;;;;16.23;100.00;98510.91;5070650;28;20056;-67
2022/09/14 07:10:30;;;;;;;6.15;5.03;;;;;;;16.20;100.00;98500.56;5071948;28;20045;-66
2022/09/14 07:12:58;;;;;;;8.75;7.28;;;;;;;16.24;100.00;98503.75;5071337;28;20080;-68
2022/09/14 07:15:25;;;;;;;7.72;6.50;;;;;;;16.28;100.00;98505.16;5071171;28;20056;-67
2022/09/14 07:17:52;;;;;;;6.03;4.93;;;;;;;16.33;100.00;98505.56;5070350;28;20052;-67
2022/09/14 07:20:20;;;;;;;4.13;3.70;;;;;;;16.36;100.00;98505.25;5071160;28;20051;-69
2022/09/14 07:22:46;;;;;;;5.45;4.20;;;;;;;16.42;100.00;98499.38;5071426;28;20052;-68
2022/09/14 07:25:13;;;;;;;4.30;3.15;;;;;;;16.42;100.00;98498.56;5069727;28;20049;-68
2022/09/14 07:27:40;;;;;;;6.05;5.20;;;;;;;16.40;100.00;98501.34;5070211;28;20060;-68
2022/09/14 07:30:08;;;;;;;5.60;4.70;;;;;;;16.40;100.00;98485.38;5070753;28;20053;-68
2022/09/14 07:32:35;;;;;;;5.43;4.80;;;;;;;16.46;100.00;98491.94;5070759;28;20041;-67
2022/09/14 07:35:01;;;;;;;6.13;5.07;;;;;;;16.46;100.00;98502.59;5071018;28;20060;-67
2022/09/14 07:37:30;;;;;;;5.18;4.30;;;;;;;16.45;100.00;98512.38;5070188;28;20058;-69
2022/09/14 07:39:57;;;;;;;5.78;5.28;;;;;;;16.39;100.00;98512.97;5070829;28;20106;-67
2022/09/14 07:42:23;;;;;;;5.40;4.53;;;;;;;16.38;100.00;98519.25;5070568;28;20044;-67
2022/09/14 07:44:50;;;;;;;4.95;4.05;;;;;;;16.32;100.00;98519.84;5070347;28;20048;-69
2022/09/14 07:47:17;;;;;;;5.50;4.60;;;;;;;16.30;100.00;98527.13;5068919;28;20053;-68
2022/09/14 07:49:43;;;;;;;5.20;4.55;;;;;;;16.24;100.00;98523.22;5070444;28;20048;-67
2022/09/14 07:52:10;;;;;;;6.53;4.88;;;;;;;16.29;100.00;98510.34;5069945;28;20056;-67
2022/09/14 07:54:38;;;;;;;5.60;4.88;;;;;;;16.26;100.00;98510.59;5069979;28;20657;-69
2022/09/14 07:57:05;;;;;;;5.70;4.72;;;;;;;16.24;100.00;98512.59;5069781;28;20048;-69
2022/09/14 07:59:31;;;;;;;6.13;5.35;;;;;;;16.29;100.00;98510.34;5070296;28;20045;-67
2022/09/14 08:01:58;;;;;;;5.63;4.72;;;;;;;16.35;100.00;98508.91;5070349;28;20051;-69
2022/09/14 08:04:24;;;;;;;5.68;4.93;;;;;;;16.36;100.00;98499.94;5066426;28;20411;-69
2022/09/14 08:06:51;;;;;;;9.02;6.32;;;;;;;16.32;100.00;98501.25;5069696;28;20059;-68
2022/09/14 08:09:17;;;;;;;6.45;5.85;;;;;;;16.38;100.00;98513.13;5069923;28;20068;-68
2022/09/14 08:11:45;;;;;;;5.68;4.47;;;;;;;16.45;100.00;98509.72;5072461;28;20045;-69
2022/09/14 08:14:12;;;;;;;6.90;6.20;;;;;;;16.50;100.00;98501.31;5069708;28;20044;-69
2022/09/14 08:16:40;;;;;;;4.90;4.25;;;;;;;16.51;100.00;98497.66;5069268;28;20120;-68
2022/09/14 08:19:09;;;;;;;7.50;6.10;;;;;;;16.55;100.00;98501.72;5069821;28;20049;-68
2022/09/14 08:21:36;;;;;;;7.35;6.18;;;;;;;16.41;100.00;98499.53;5069831;28;20052;-70
2022/09/14 08:24:04;;;;;;;6.22;5.63;;;;;;;16.47;100.00;98504.28;5069610;28;20049;-67
2022/09/14 08:26:31;;;;;;;6.85;6.15;;;;;;;16.48;100.00;98506.78;5069001;28;20044;-67
2022/09/14 08:28:59;;;;;;;7.60;6.90;;;;;;;16.45;100.00;98503.56;5069362;28;20052;-67
2022/09/14 08:31:27;;;;;;;8.88;7.20;;;;;;;16.48;100.00;98514.75;5069709;28;20055;-69
2022/09/14 08:33:55;;;;;;;19.15;15.77;;;;;;;16.48;100.00;98517.41;5069736;28;20052;-68
2022/09/14 08:36:24;;;;;;;11.05;7.88;;;;;;;16.55;100.00;98516.84;5055681;28;20067;-68
2022/09/14 08:38:50;;;;;;;8.25;6.57;;;;;;;16.59;100.00;98520.88;5049732;28;20500;-68
2022/09/14 08:41:27;;;;;;;9.18;7.07;;;;;;;16.62;100.00;98528.59;5049292;28;20444;-69
2022/09/14 08:43:53;;;;;;;10.00;8.15;;;;;;;16.64;100.00;98523.97;5049748;28;20044;-68
2022/09/14 08:46:29;;;;;;;9.77;6.85;;;;;;;16.64;100.00;98524.81;5048695;28;20045;-68
2022/09/14 08:48:56;;;;;;;9.63;8.48;;;;;;;16.61;100.00;98530.41;5049408;28;20106;-66
2022/09/14 08:51:23;;;;;;;9.80;8.80;;;;;;;16.59;100.00;98528.88;5049586;28;20398;-68
2022/09/14 08:53:52;;;;;;;9.85;8.88;;;;;;;16.60;100.00;98519.91;5049379;28;20049;-68
2022/09/14 08:56:23;;;;;;;8.52;7.72;;;;;;;16.62;100.00;98523.28;5048663;28;20048;-68
2022/09/14 08:59:01;;;;;;;13.13;9.15;;;;;;;16.63;100.00;98519.63;5057059;28;20055;-69
2022/09/14 09:01:37;;;;;;;9.52;8.20;;;;;;;16.57;100.00;98512.22;5069282;28;20044;-69
2022/09/14 09:04:16;;;;;;;7.70;6.53;;;;;;;16.59;100.00;98527.06;5069220;28;20419;-68
2022/09/14 09:06:48;;;;;;;9.38;7.68;;;;;;;16.57;100.00;98523.72;5068940;28;20060;-68
2022/09/14 09:09:30;;;;;;;11.27;7.10;;;;;;;16.55;100.00;98524.84;5069325;28;20139;-68
2022/09/14 09:11:57;;;;;;;10.13;9.13;;;;;;;16.47;100.00;98522.91;5069333;28;20075;-69
2022/09/14 09:14:30;;;;;;;10.05;9.13;;;;;;;16.42;100.00;98531.31;5069058;28;20075;-69
2022/09/14 09:17:01;;;;;;;8.93;8.00;;;;;;;16.42;100.00;98531.31;5068736;28;20078;-69
2022/09/14 09:19:32;;;;;;;10.07;8.80;;;;;;;16.44;100.00;98539.13;5064442;28;20052;-68
2022/09/14 09:22:03;;;;;;;11.30;10.20;;;;;;;16.43;100.00;98540.94;5058455;28;20045;-69
2022/09/14 09:24:36;;;;;;;10.27;7.85;;;;;;;16.43;100.00;98538.28;5068872;28;20389;-69
2022/09/14 09:27:09;;;;;;;10.45;9.13;;;;;;;16.41;100.00;98534.09;5068137;28;20049;-68
2022/09/14 09:29:35;;;;;;;10.95;9.20;;;;;;;16.36;100.00;98541.66;5068956;28;20049;-68
2022/09/14 09:32:04;;;;;;;10.85;9.70;;;;;;;16.38;100.00;98534.38;5068957;28;20053;-68
2022/09/14 09:34:33;;;;;;;11.73;9.88;;;;;;;16.37;100.00;98530.06;5068852;28;20052;-69
2022/09/14 09:37:00;;;;;;;12.90;11.60;;;;;;;16.38;100.00;98519.25;5067989;28;20049;-68
2022/09/14 09:39:30;;;;;;;11.65;10.30;;;;;;;16.38;100.00;98529.06;5068936;28;20060;-69
2022/09/14 09:42:01;;;;;;;14.52;12.00;;;;;;;16.39;100.00;98520.09;5068247;28;20055;-68
2022/09/14 09:44:27;;;;;;;11.57;10.38;;;;;;;16.37;100.00;98525.59;5068828;28;20045;-69
2022/09/14 09:46:56;;;;;;;15.30;11.95;;;;;;;16.39;100.00;98514.78;5068261;28;20048;-67
2022/09/14 09:49:28;;;;;;;12.55;11.15;;;;;;;16.29;100.00;98514.81;5060309;28;20137;-69
2022/09/14 09:51:55;;;;;;;18.73;15.35;;;;;;;16.27;100.00;98506.97;5052765;28;20048;-69
2022/09/14 09:54:26;;;;;;;53.28;37.53;;;;;;;16.23;100.00;98507.41;5052298;28;20049;-70
2022/09/14 09:56:55;;;;;;;18.85;15.45;;;;;;;16.21;100.00;98507.53;5061070;28;20536;-68
2022/09/14 09:59:28;;;;;;;14.05;12.52;;;;;;;16.28;100.00;98507.81;5060416;28;20053;-68
2022/09/14 10:01:55;;;;;;;9.88;8.35;;;;;;;16.36;100.00;98501.78;5052388;28;20057;-67
2022/09/14 10:04:26;;;;;;;12.95;10.95;;;;;;;16.42;100.00;98515.34;5052351;28;20053;-68
2022/09/14 10:06:53;;;;;;;10.70;9.32;;;;;;;16.43;100.00;98511.69;5051737;28;20148;-67
2022/09/14 10:09:22;;;;;;;10.63;8.35;;;;;;;16.50;100.00;98494.16;5052208;28;20102;-70
2022/09/14 10:11:57;;;;;;;8.00;6.18;;;;;;;16.60;100.00;98501.28;5052207;28;20439;-69
2022/09/14 10:14:30;;;;;;;7.30;6.40;;;;;;;16.64;100.00;98508.84;5064361;28;20040;-67
2022/09/14 10:17:05;;;;;;;10.18;9.05;;;;;;;16.69;100.00;98501.25;5071570;28;20048;-67
2022/09/14 10:19:34;;;;;;;9.18;7.78;;;;;;;16.71;100.00;98499.28;5072267;28;20048;-67
2022/09/14 10:22:04;;;;;;;8.02;7.22;;;;;;;16.70;100.00;98500.25;5072192;28;20059;-68
2022/09/14 10:24:32;;;;;;;11.40;9.60;;;;;;;16.75;100.00;98513.13;5071854;28;20048;-68
2022/09/14 10:26:59;;;;;;;6.80;6.07;;;;;;;16.82;100.00;98513.44;5071564;28;20056;-68
2022/09/14 10:29:35;;;;;;;9.00;6.88;;;;;;;16.90;100.00;98502.88;5072380;28;20055;-68
2022/09/14 10:32:11;;;;;;;9.75;8.05;;;;;;;16.87;100.00;98504.00;5072660;28;20048;-68
2022/09/14 10:34:39;;;;;;;8.18;6.70;;;;;;;16.84;100.00;98504.31;5070223;28;20585;-69
2022/09/14 10:37:18;;;;;;;7.55;6.70;;;;;;;16.91;100.00;98492.09;5054211;28;20045;-67
2022/09/14 10:39:49;;;;;;;9.00;6.55;;;;;;;16.97;100.00;98490.66;5056970;28;20143;-67
2022/09/14 10:42:26;;;;;;;6.63;5.90;;;;;;;17.01;100.00;98494.72;5062983;28;20049;-68
2022/09/14 10:45:05;;;;;;;9.02;8.13;;;;;;;17.16;100.00;98477.22;5056828;28;20508;-68
2022/09/14 10:47:56;;;;;;;6.88;6.15;;;;;;;17.27;100.00;98473.50;5060421;28;20053;-68
2022/09/14 10:50:39;;;;;;;8.25;6.50;;;;;;;17.33;100.00;98464.09;5060619;28;20041;-68
2022/09/14 10:53:17;;;;;;;7.72;6.82;;;;;;;17.38;100.00;98467.16;5063915;28;20519;-67
2022/09/14 10:55:50;;;;;;;7.38;5.70;;;;;;;17.49;100.00;98464.25;5073688;28;20049;-66
2022/09/14 10:58:30;;;;;;;7.63;6.00;;;;;;;17.49;100.00;98466.06;5070788;28;20049;-66
2022/09/14 11:01:09;;;;;;;17.77;7.32;;;;;;;17.55;100.00;98460.16;5051915;28;20045;-65
2022/09/14 11:03:53;;;;;;;9.40;7.65;;;;;;;17.59;100.00;98458.84;5051681;28;20049;-69
2022/09/14 11:06:35;;;;;;;8.85;7.88;;;;;;;17.62;100.00;98453.19;5051233;28;20061;-67
2022/09/14 11:09:07;;;;;;;11.10;9.30;;;;;;;17.60;100.00;98444.53;5051465;28;20103;-67
2022/09/14 11:11:46;;;;;;;11.20;10.10;;;;;;;17.59;100.00;98438.34;5051395;28;20137;-67
2022/09/14 11:14:28;;;;;;;11.15;10.05;;;;;;;17.49;100.00;98444.75;5050918;28;20092;-67
2022/09/14 11:17:11;;;;;;;13.45;10.02;;;;;;;17.43;100.00;98445.38;5050581;28;20599;-67
2022/09/14 11:19:50;;;;;;;9.23;8.32;;;;;;;17.32;100.00;98439.25;5050855;28;20048;-66
2022/09/14 11:22:29;;;;;;;9.05;7.82;;;;;;;17.43;100.00;98442.72;5050964;28;20056;-67
2022/09/14 11:24:59;;;;;;;10.15;9.25;;;;;;;17.36;99.97;98448.63;5050909;28;20044;-68